Terminal Aerodrome Forecast
Issued by NWS Twin Cities, MN

Home | Current Version | Previous Version | Text Only | Print | Product List | Glossary Off
Versions: 1 2 3 4 5 6 7 8 9 10 11 12 13 14 15 16 17 18

000
FTUS43 KMPX 210300 AAA
TAFEAU
TAF AMD
KEAU 210337Z 2104/2124 16008KT 4SM BR OVC008
     FM211300 15008KT 4SM -FZDZ BR OVC008
     FM211600 16010KT 6SM BR OVC014=

USA.gov is the U.S. government's official web portal to all federal, state and local government web resources and services.